sensor_id;sensor_type;location;lat;lon;timestamp;P1;durP1;ratioP1;P2;durP2;ratioP2
6840;SDS011;3458;53.678;14.080;2023-07-28T00:02:03;14.60;;;10.70;;
6840;SDS011;3458;53.678;14.080;2023-07-28T00:04:29;14.23;;;10.70;;
6840;SDS011;3458;53.678;14.080;2023-07-28T00:06:54;17.53;;;12.13;;
6840;SDS011;3458;53.678;14.080;2023-07-28T00:09:20;20.13;;;12.50;;
6840;SDS011;3458;53.678;14.080;2023-07-28T00:11:47;15.00;;;11.50;;
6840;SDS011;3458;53.678;14.080;2023-07-28T00:14:13;18.13;;;12.40;;
6840;SDS011;3458;53.678;14.080;2023-07-28T00:16:39;20.93;;;11.50;;
6840;SDS011;3458;53.678;14.080;2023-07-28T00:19:05;17.87;;;12.40;;
6840;SDS011;3458;53.678;14.080;2023-07-28T00:21:30;17.80;;;12.80;;
6840;SDS011;3458;53.678;14.080;2023-07-28T00:23:56;16.57;;;12.53;;
6840;SDS011;3458;53.678;14.080;2023-07-28T00:26:21;20.80;;;14.10;;
6840;SDS011;3458;53.678;14.080;2023-07-28T00:28:47;21.27;;;13.30;;
6840;SDS011;3458;53.678;14.080;2023-07-28T00:31:12;22.23;;;14.17;;
6840;SDS011;3458;53.678;14.080;2023-07-28T00:33:38;20.50;;;14.20;;
6840;SDS011;3458;53.678;14.080;2023-07-28T00:36:03;25.00;;;14.47;;
6840;SDS011;3458;53.678;14.080;2023-07-28T00:38:29;22.60;;;13.90;;
6840;SDS011;3458;53.678;14.080;2023-07-28T00:40:54;20.03;;;13.70;;
6840;SDS011;3458;53.678;14.080;2023-07-28T00:43:20;20.23;;;13.70;;
6840;SDS011;3458;53.678;14.080;2023-07-28T00:45:46;19.10;;;12.70;;
6840;SDS011;3458;53.678;14.080;2023-07-28T00:48:12;20.40;;;13.40;;
6840;SDS011;3458;53.678;14.080;2023-07-28T00:50:40;23.87;;;13.90;;
6840;SDS011;3458;53.678;14.080;2023-07-28T00:53:07;19.47;;;13.33;;
6840;SDS011;3458;53.678;14.080;2023-07-28T00:55:32;20.63;;;13.73;;
6840;SDS011;3458;53.678;14.080;2023-07-28T00:57:58;19.73;;;13.13;;
6840;SDS011;3458;53.678;14.080;2023-07-28T01:00:24;23.83;;;14.73;;
6840;SDS011;3458;53.678;14.080;2023-07-28T01:02:49;21.10;;;13.73;;
6840;SDS011;3458;53.678;14.080;2023-07-28T01:05:15;23.17;;;14.87;;
6840;SDS011;3458;53.678;14.080;2023-07-28T01:07:44;22.10;;;14.73;;
6840;SDS011;3458;53.678;14.080;2023-07-28T01:10:18;19.43;;;13.60;;
6840;SDS011;3458;53.678;14.080;2023-07-28T01:12:54;27.70;;;15.63;;
6840;SDS011;3458;53.678;14.080;2023-07-28T01:15:20;26.50;;;15.30;;
6840;SDS011;3458;53.678;14.080;2023-07-28T01:17:45;23.67;;;16.23;;
6840;SDS011;3458;53.678;14.080;2023-07-28T01:20:11;23.07;;;14.57;;
6840;SDS011;3458;53.678;14.080;2023-07-28T01:22:47;22.50;;;15.10;;
6840;SDS011;3458;53.678;14.080;2023-07-28T01:28:39;26.30;;;16.07;;
6840;SDS011;3458;53.678;14.080;2023-07-28T01:31:07;27.97;;;16.03;;
6840;SDS011;3458;53.678;14.080;2023-07-28T01:33:33;21.80;;;14.60;;
6840;SDS011;3458;53.678;14.080;2023-07-28T01:35:58;25.80;;;14.97;;
6840;SDS011;3458;53.678;14.080;2023-07-28T01:38:25;25.27;;;15.17;;
6840;SDS011;3458;53.678;14.080;2023-07-28T01:40:54;22.73;;;13.93;;
6840;SDS011;3458;53.678;14.080;2023-07-28T01:43:20;24.23;;;14.47;;
6840;SDS011;3458;53.678;14.080;2023-07-28T01:45:46;27.67;;;14.90;;
6840;SDS011;3458;53.678;14.080;2023-07-28T01:48:11;25.03;;;15.07;;
6840;SDS011;3458;53.678;14.080;2023-07-28T01:50:37;24.30;;;15.47;;
6840;SDS011;3458;53.678;14.080;2023-07-28T01:53:03;29.07;;;14.87;;
6840;SDS011;3458;53.678;14.080;2023-07-28T01:55:30;28.40;;;15.97;;
6840;SDS011;3458;53.678;14.080;2023-07-28T01:57:56;27.93;;;16.00;;
6840;SDS011;3458;53.678;14.080;2023-07-28T02:00:24;24.10;;;15.17;;
6840;SDS011;3458;53.678;14.080;2023-07-28T02:02:50;28.90;;;16.17;;
6840;SDS011;3458;53.678;14.080;2023-07-28T02:05:16;28.27;;;16.83;;
6840;SDS011;3458;53.678;14.080;2023-07-28T02:07:41;28.70;;;15.50;;
6840;SDS011;3458;53.678;14.080;2023-07-28T02:10:07;22.37;;;15.60;;
6840;SDS011;3458;53.678;14.080;2023-07-28T02:12:33;28.10;;;15.23;;
6840;SDS011;3458;53.678;14.080;2023-07-28T02:14:59;29.03;;;16.70;;
6840;SDS011;3458;53.678;14.080;2023-07-28T02:17:24;29.37;;;16.93;;
6840;SDS011;3458;53.678;14.080;2023-07-28T02:19:50;27.37;;;16.47;;
6840;SDS011;3458;53.678;14.080;2023-07-28T02:22:15;29.77;;;16.70;;
6840;SDS011;3458;53.678;14.080;2023-07-28T02:24:41;29.17;;;16.50;;
6840;SDS011;3458;53.678;14.080;2023-07-28T02:27:06;28.93;;;16.33;;
6840;SDS011;3458;53.678;14.080;2023-07-28T02:29:32;31.37;;;15.07;;
6840;SDS011;3458;53.678;14.080;2023-07-28T02:31:57;27.93;;;16.33;;
6840;SDS011;3458;53.678;14.080;2023-07-28T02:34:23;28.30;;;15.40;;
6840;SDS011;3458;53.678;14.080;2023-07-28T02:36:48;27.10;;;17.03;;
6840;SDS011;3458;53.678;14.080;2023-07-28T02:39:14;29.40;;;16.83;;
6840;SDS011;3458;53.678;14.080;2023-07-28T02:41:39;30.10;;;17.00;;
6840;SDS011;3458;53.678;14.080;2023-07-28T02:44:05;25.53;;;16.47;;
6840;SDS011;3458;53.678;14.080;2023-07-28T02:46:30;25.87;;;15.87;;
6840;SDS011;3458;53.678;14.080;2023-07-28T02:48:56;30.23;;;17.57;;
6840;SDS011;3458;53.678;14.080;2023-07-28T02:51:21;31.10;;;17.00;;
6840;SDS011;3458;53.678;14.080;2023-07-28T02:53:47;32.10;;;18.90;;
6840;SDS011;3458;53.678;14.080;2023-07-28T02:56:12;27.10;;;15.00;;
6840;SDS011;3458;53.678;14.080;2023-07-28T02:58:38;28.37;;;18.33;;
6840;SDS011;3458;53.678;14.080;2023-07-28T03:01:03;29.90;;;17.50;;
6840;SDS011;3458;53.678;14.080;2023-07-28T03:03:29;34.97;;;17.80;;
6840;SDS011;3458;53.678;14.080;2023-07-28T03:05:55;26.07;;;17.10;;
6840;SDS011;3458;53.678;14.080;2023-07-28T03:08:20;26.33;;;16.00;;
6840;SDS011;3458;53.678;14.080;2023-07-28T03:10:46;26.10;;;16.47;;
6840;SDS011;3458;53.678;14.080;2023-07-28T03:13:11;27.60;;;16.23;;
6840;SDS011;3458;53.678;14.080;2023-07-28T03:15:37;27.50;;;17.27;;
6840;SDS011;3458;53.678;14.080;2023-07-28T03:18:02;31.47;;;17.57;;
6840;SDS011;3458;53.678;14.080;2023-07-28T03:20:28;27.80;;;16.33;;
6840;SDS011;3458;53.678;14.080;2023-07-28T03:22:54;31.00;;;17.37;;
6840;SDS011;3458;53.678;14.080;2023-07-28T03:25:19;27.23;;;16.07;;
6840;SDS011;3458;53.678;14.080;2023-07-28T03:27:45;27.23;;;15.47;;
6840;SDS011;3458;53.678;14.080;2023-07-28T03:30:11;25.43;;;14.30;;
6840;SDS011;3458;53.678;14.080;2023-07-28T03:32:36;26.00;;;15.70;;
6840;SDS011;3458;53.678;14.080;2023-07-28T03:35:02;21.83;;;13.80;;
6840;SDS011;3458;53.678;14.080;2023-07-28T03:37:30;22.43;;;14.87;;
6840;SDS011;3458;53.678;14.080;2023-07-28T03:39:56;22.50;;;14.20;;
6840;SDS011;3458;53.678;14.080;2023-07-28T03:42:21;17.93;;;12.77;;
6840;SDS011;3458;53.678;14.080;2023-07-28T03:44:47;21.03;;;13.10;;
6840;SDS011;3458;53.678;14.080;2023-07-28T03:47:12;21.73;;;13.57;;
6840;SDS011;3458;53.678;14.080;2023-07-28T03:49:38;18.80;;;13.10;;
6840;SDS011;3458;53.678;14.080;2023-07-28T03:52:03;15.60;;;11.90;;
6840;SDS011;3458;53.678;14.080;2023-07-28T03:54:29;16.73;;;11.80;;
6840;SDS011;3458;53.678;14.080;2023-07-28T03:56:54;25.63;;;13.83;;
6840;SDS011;3458;53.678;14.080;2023-07-28T03:59:20;17.20;;;10.90;;
6840;SDS011;3458;53.678;14.080;2023-07-28T04:01:45;17.73;;;11.70;;
6840;SDS011;3458;53.678;14.080;2023-07-28T04:04:11;17.50;;;11.47;;
6840;SDS011;3458;53.678;14.080;2023-07-28T04:06:40;13.77;;;10.83;;
6840;SDS011;3458;53.678;14.080;2023-07-28T04:09:11;15.63;;;10.57;;
6840;SDS011;3458;53.678;14.080;2023-07-28T04:11:37;16.57;;;10.73;;
6840;SDS011;3458;53.678;14.080;2023-07-28T04:14:03;13.80;;;10.50;;
6840;SDS011;3458;53.678;14.080;2023-07-28T04:16:29;14.93;;;10.27;;
6840;SDS011;3458;53.678;14.080;2023-07-28T04:18:54;15.23;;;10.30;;
6840;SDS011;3458;53.678;14.080;2023-07-28T04:21:20;16.40;;;10.23;;
6840;SDS011;3458;53.678;14.080;2023-07-28T04:23:46;15.47;;;10.97;;
6840;SDS011;3458;53.678;14.080;2023-07-28T04:26:11;17.97;;;11.13;;
6840;SDS011;3458;53.678;14.080;2023-07-28T04:28:37;13.67;;;10.47;;
6840;SDS011;3458;53.678;14.080;2023-07-28T04:31:02;12.83;;;9.80;;
6840;SDS011;3458;53.678;14.080;2023-07-28T04:33:28;15.13;;;10.20;;
6840;SDS011;3458;53.678;14.080;2023-07-28T04:35:53;11.70;;;9.00;;
6840;SDS011;3458;53.678;14.080;2023-07-28T04:38:19;14.70;;;9.70;;
6840;SDS011;3458;53.678;14.080;2023-07-28T04:40:44;13.70;;;10.60;;
6840;SDS011;3458;53.678;14.080;2023-07-28T04:43:10;13.80;;;9.37;;
6840;SDS011;3458;53.678;14.080;2023-07-28T04:45:36;11.23;;;8.10;;
6840;SDS011;3458;53.678;14.080;2023-07-28T04:48:01;10.17;;;8.50;;
6840;SDS011;3458;53.678;14.080;2023-07-28T04:50:28;16.73;;;8.87;;
6840;SDS011;3458;53.678;14.080;2023-07-28T04:52:53;11.60;;;9.07;;
6840;SDS011;3458;53.678;14.080;2023-07-28T04:55:19;12.23;;;9.40;;
6840;SDS011;3458;53.678;14.080;2023-07-28T04:57:45;11.60;;;8.70;;
6840;SDS011;3458;53.678;14.080;2023-07-28T05:00:11;9.53;;;7.83;;
6840;SDS011;3458;53.678;14.080;2023-07-28T05:02:37;9.33;;;7.77;;
6840;SDS011;3458;53.678;14.080;2023-07-28T05:05:02;9.77;;;8.07;;
6840;SDS011;3458;53.678;14.080;2023-07-28T05:07:28;11.80;;;8.77;;
6840;SDS011;3458;53.678;14.080;2023-07-28T05:09:54;15.40;;;10.43;;
6840;SDS011;3458;53.678;14.080;2023-07-28T05:12:19;12.87;;;9.83;;
6840;SDS011;3458;53.678;14.080;2023-07-28T05:14:45;14.57;;;10.90;;
6840;SDS011;3458;53.678;14.080;2023-07-28T05:17:11;10.97;;;8.37;;
6840;SDS011;3458;53.678;14.080;2023-07-28T05:19:36;16.07;;;8.90;;
6840;SDS011;3458;53.678;14.080;2023-07-28T05:22:02;8.00;;;6.80;;
6840;SDS011;3458;53.678;14.080;2023-07-28T05:24:27;12.37;;;7.83;;
6840;SDS011;3458;53.678;14.080;2023-07-28T05:26:53;12.20;;;9.83;;
6840;SDS011;3458;53.678;14.080;2023-07-28T05:29:18;31.73;;;23.30;;
6840;SDS011;3458;53.678;14.080;2023-07-28T05:31:44;16.60;;;13.00;;
6840;SDS011;3458;53.678;14.080;2023-07-28T05:34:10;11.30;;;8.70;;
6840;SDS011;3458;53.678;14.080;2023-07-28T05:36:39;37.37;;;25.47;;
6840;SDS011;3458;53.678;14.080;2023-07-28T05:39:05;40.40;;;27.17;;
6840;SDS011;3458;53.678;14.080;2023-07-28T05:41:30;48.03;;;31.37;;
6840;SDS011;3458;53.678;14.080;2023-07-28T05:43:57;57.13;;;37.20;;
6840;SDS011;3458;53.678;14.080;2023-07-28T05:46:22;12.10;;;9.93;;
6840;SDS011;3458;53.678;14.080;2023-07-28T05:48:48;12.63;;;8.57;;
6840;SDS011;3458;53.678;14.080;2023-07-28T05:51:13;9.90;;;7.50;;
6840;SDS011;3458;53.678;14.080;2023-07-28T05:53:39;10.00;;;8.00;;
6840;SDS011;3458;53.678;14.080;2023-07-28T05:56:04;10.77;;;7.80;;
6840;SDS011;3458;53.678;14.080;2023-07-28T05:58:30;8.80;;;7.90;;
6840;SDS011;3458;53.678;14.080;2023-07-28T06:00:55;7.83;;;6.53;;
6840;SDS011;3458;53.678;14.080;2023-07-28T06:03:21;6.90;;;6.20;;
6840;SDS011;3458;53.678;14.080;2023-07-28T06:05:46;7.90;;;6.63;;
6840;SDS011;3458;53.678;14.080;2023-07-28T06:08:12;7.40;;;6.23;;
6840;SDS011;3458;53.678;14.080;2023-07-28T06:10:38;7.40;;;5.97;;
6840;SDS011;3458;53.678;14.080;2023-07-28T06:13:04;14.53;;;10.43;;
6840;SDS011;3458;53.678;14.080;2023-07-28T06:15:29;10.27;;;7.30;;
6840;SDS011;3458;53.678;14.080;2023-07-28T06:17:55;8.23;;;6.83;;
6840;SDS011;3458;53.678;14.080;2023-07-28T06:20:20;10.43;;;6.67;;
6840;SDS011;3458;53.678;14.080;2023-07-28T06:22:46;7.40;;;5.40;;
6840;SDS011;3458;53.678;14.080;2023-07-28T06:25:11;6.40;;;5.77;;
6840;SDS011;3458;53.678;14.080;2023-07-28T06:27:37;5.47;;;4.80;;
6840;SDS011;3458;53.678;14.080;2023-07-28T06:30:03;6.60;;;5.20;;
6840;SDS011;3458;53.678;14.080;2023-07-28T06:32:30;5.20;;;4.70;;
6840;SDS011;3458;53.678;14.080;2023-07-28T06:34:56;5.73;;;5.10;;
6840;SDS011;3458;53.678;14.080;2023-07-28T06:37:22;6.47;;;4.17;;
6840;SDS011;3458;53.678;14.080;2023-07-28T06:39:48;4.83;;;4.10;;
6840;SDS011;3458;53.678;14.080;2023-07-28T06:42:14;6.43;;;3.80;;
6840;SDS011;3458;53.678;14.080;2023-07-28T06:44:41;3.80;;;3.47;;
6840;SDS011;3458;53.678;14.080;2023-07-28T06:47:07;4.10;;;3.47;;
6840;SDS011;3458;53.678;14.080;2023-07-28T06:49:32;3.40;;;3.17;;
6840;SDS011;3458;53.678;14.080;2023-07-28T06:51:58;2.93;;;2.70;;
6840;SDS011;3458;53.678;14.080;2023-07-28T06:54:23;4.90;;;3.60;;
6840;SDS011;3458;53.678;14.080;2023-07-28T06:56:49;5.27;;;4.20;;
6840;SDS011;3458;53.678;14.080;2023-07-28T06:59:15;4.27;;;3.20;;
6840;SDS011;3458;53.678;14.080;2023-07-28T07:01:40;3.33;;;3.03;;
6840;SDS011;3458;53.678;14.080;2023-07-28T07:04:06;3.10;;;2.90;;
6840;SDS011;3458;53.678;14.080;2023-07-28T07:06:31;3.53;;;3.27;;
6840;SDS011;3458;53.678;14.080;2023-07-28T07:08:57;4.23;;;3.90;;
6840;SDS011;3458;53.678;14.080;2023-07-28T07:11:22;3.87;;;3.57;;
6840;SDS011;3458;53.678;14.080;2023-07-28T07:13:48;3.77;;;3.40;;
6840;SDS011;3458;53.678;14.080;2023-07-28T07:16:16;4.70;;;3.80;;
6840;SDS011;3458;53.678;14.080;2023-07-28T07:18:42;3.80;;;3.50;;
6840;SDS011;3458;53.678;14.080;2023-07-28T07:21:08;4.60;;;2.70;;
6840;SDS011;3458;53.678;14.080;2023-07-28T07:23:35;3.53;;;3.23;;
6840;SDS011;3458;53.678;14.080;2023-07-28T07:26:01;6.40;;;3.23;;
6840;SDS011;3458;53.678;14.080;2023-07-28T07:28:26;3.60;;;3.30;;
6840;SDS011;3458;53.678;14.080;2023-07-28T07:30:53;3.70;;;3.03;;
6840;SDS011;3458;53.678;14.080;2023-07-28T07:33:19;4.10;;;3.77;;
6840;SDS011;3458;53.678;14.080;2023-07-28T07:35:44;3.83;;;3.53;;
6840;SDS011;3458;53.678;14.080;2023-07-28T07:38:10;4.50;;;3.73;;
6840;SDS011;3458;53.678;14.080;2023-07-28T07:40:35;7.97;;;3.93;;
6840;SDS011;3458;53.678;14.080;2023-07-28T07:43:01;4.80;;;4.30;;
6840;SDS011;3458;53.678;14.080;2023-07-28T07:45:28;3.63;;;3.33;;
6840;SDS011;3458;53.678;14.080;2023-07-28T07:47:57;4.67;;;4.20;;
6840;SDS011;3458;53.678;14.080;2023-07-28T07:50:24;6.57;;;4.93;;
6840;SDS011;3458;53.678;14.080;2023-07-28T07:52:49;7.60;;;6.57;;
6840;SDS011;3458;53.678;14.080;2023-07-28T07:55:15;5.23;;;4.40;;
6840;SDS011;3458;53.678;14.080;2023-07-28T07:57:41;6.53;;;4.63;;
6840;SDS011;3458;53.678;14.080;2023-07-28T08:00:06;4.50;;;4.10;;
6840;SDS011;3458;53.678;14.080;2023-07-28T08:02:33;4.07;;;3.67;;
6840;SDS011;3458;53.678;14.080;2023-07-28T08:04:59;3.97;;;3.60;;
6840;SDS011;3458;53.678;14.080;2023-07-28T08:07:24;4.40;;;4.00;;
6840;SDS011;3458;53.678;14.080;2023-07-28T08:09:51;5.50;;;5.00;;
6840;SDS011;3458;53.678;14.080;2023-07-28T08:12:16;6.60;;;6.00;;
6840;SDS011;3458;53.678;14.080;2023-07-28T08:14:42;6.30;;;4.90;;
6840;SDS011;3458;53.678;14.080;2023-07-28T08:17:08;10.67;;;8.57;;
6840;SDS011;3458;53.678;14.080;2023-07-28T08:19:34;6.03;;;5.27;;
6840;SDS011;3458;53.678;14.080;2023-07-28T08:22:00;4.97;;;4.47;;
6840;SDS011;3458;53.678;14.080;2023-07-28T08:24:28;4.40;;;4.00;;
6840;SDS011;3458;53.678;14.080;2023-07-28T08:26:54;4.43;;;3.70;;
6840;SDS011;3458;53.678;14.080;2023-07-28T08:29:19;4.40;;;4.00;;
6840;SDS011;3458;53.678;14.080;2023-07-28T08:31:45;7.30;;;4.13;;
6840;SDS011;3458;53.678;14.080;2023-07-28T08:34:10;4.27;;;3.87;;
6840;SDS011;3458;53.678;14.080;2023-07-28T08:36:36;3.77;;;3.47;;
6840;SDS011;3458;53.678;14.080;2023-07-28T08:39:01;4.10;;;3.80;;
6840;SDS011;3458;53.678;14.080;2023-07-28T08:41:27;4.00;;;3.60;;
6840;SDS011;3458;53.678;14.080;2023-07-28T08:43:53;5.60;;;3.07;;
6840;SDS011;3458;53.678;14.080;2023-07-28T08:46:19;26.37;;;18.10;;
6840;SDS011;3458;53.678;14.080;2023-07-28T08:48:45;5.30;;;4.80;;
6840;SDS011;3458;53.678;14.080;2023-07-28T08:51:11;3.60;;;3.30;;
6840;SDS011;3458;53.678;14.080;2023-07-28T08:53:38;3.00;;;2.80;;
6840;SDS011;3458;53.678;14.080;2023-07-28T08:56:04;2.60;;;2.40;;
6840;SDS011;3458;53.678;14.080;2023-07-28T08:58:30;5.47;;;4.43;;
6840;SDS011;3458;53.678;14.080;2023-07-28T09:00:55;5.77;;;3.20;;
6840;SDS011;3458;53.678;14.080;2023-07-28T09:03:25;4.43;;;4.03;;
6840;SDS011;3458;53.678;14.080;2023-07-28T09:05:53;2.73;;;2.53;;
6840;SDS011;3458;53.678;14.080;2023-07-28T09:08:24;2.20;;;2.10;;
6840;SDS011;3458;53.678;14.080;2023-07-28T09:10:50;2.67;;;2.23;;
6840;SDS011;3458;53.678;14.080;2023-07-28T09:13:17;2.00;;;1.90;;
6840;SDS011;3458;53.678;14.080;2023-07-28T09:15:43;2.43;;;2.20;;
6840;SDS011;3458;53.678;14.080;2023-07-28T09:18:10;2.50;;;2.30;;
6840;SDS011;3458;53.678;14.080;2023-07-28T09:20:42;1.73;;;1.63;;
6840;SDS011;3458;53.678;14.080;2023-07-28T09:23:09;1.63;;;1.53;;
6840;SDS011;3458;53.678;14.080;2023-07-28T09:25:35;1.57;;;1.47;;
6840;SDS011;3458;53.678;14.080;2023-07-28T09:28:02;1.93;;;1.83;;
6840;SDS011;3458;53.678;14.080;2023-07-28T09:30:42;1.60;;;1.50;;
6840;SDS011;3458;53.678;14.080;2023-07-28T09:33:09;1.53;;;1.43;;
6840;SDS011;3458;53.678;14.080;2023-07-28T09:35:35;1.53;;;1.43;;
6840;SDS011;3458;53.678;14.080;2023-07-28T09:38:15;1.80;;;1.70;;
6840;SDS011;3458;53.678;14.080;2023-07-28T09:40:41;2.17;;;2.07;;
6840;SDS011;3458;53.678;14.080;2023-07-28T09:43:07;3.07;;;2.63;;
6840;SDS011;3458;53.678;14.080;2023-07-28T09:45:33;3.20;;;2.50;;
6840;SDS011;3458;53.678;14.080;2023-07-28T09:48:00;4.73;;;2.20;;
6840;SDS011;3458;53.678;14.080;2023-07-28T09:50:27;2.27;;;2.10;;
6840;SDS011;3458;53.678;14.080;2023-07-28T09:52:57;2.00;;;1.90;;
6840;SDS011;3458;53.678;14.080;2023-07-28T09:55:26;5.40;;;2.10;;
6840;SDS011;3458;53.678;14.080;2023-07-28T09:57:52;1.67;;;1.57;;
6840;SDS011;3458;53.678;14.080;2023-07-28T10:00:20;2.27;;;2.10;;
6840;SDS011;3458;53.678;14.080;2023-07-28T10:02:47;1.90;;;1.80;;
6840;SDS011;3458;53.678;14.080;2023-07-28T10:05:13;1.83;;;1.73;;
6840;SDS011;3458;53.678;14.080;2023-07-28T10:07:40;1.93;;;1.83;;
6840;SDS011;3458;53.678;14.080;2023-07-28T10:10:07;1.70;;;1.60;;
6840;SDS011;3458;53.678;14.080;2023-07-28T10:12:57;1.63;;;1.53;;
6840;SDS011;3458;53.678;14.080;2023-07-28T10:15:28;1.60;;;1.50;;
6840;SDS011;3458;53.678;14.080;2023-07-28T10:17:56;18.40;;;13.87;;
6840;SDS011;3458;53.678;14.080;2023-07-28T10:20:28;3.97;;;3.30;;
6840;SDS011;3458;53.678;14.080;2023-07-28T10:25:30;1.83;;;1.40;;
6840;SDS011;3458;53.678;14.080;2023-07-28T10:27:58;2.40;;;1.93;;
6840;SDS011;3458;53.678;14.080;2023-07-28T10:30:23;3.23;;;1.47;;
6840;SDS011;3458;53.678;14.080;2023-07-28T10:32:49;2.13;;;1.50;;
6840;SDS011;3458;53.678;14.080;2023-07-28T10:37:43;2.07;;;1.97;;
6840;SDS011;3458;53.678;14.080;2023-07-28T10:40:29;1.80;;;1.70;;
6840;SDS011;3458;53.678;14.080;2023-07-28T10:43:02;1.40;;;1.30;;
6840;SDS011;3458;53.678;14.080;2023-07-28T10:45:28;2.27;;;1.30;;
6840;SDS011;3458;53.678;14.080;2023-07-28T10:47:55;1.30;;;1.20;;
6840;SDS011;3458;53.678;14.080;2023-07-28T10:50:26;1.20;;;1.10;;
6840;SDS011;3458;53.678;14.080;2023-07-28T10:52:52;1.20;;;1.10;;
6840;SDS011;3458;53.678;14.080;2023-07-28T10:55:19;2.03;;;1.57;;
6840;SDS011;3458;53.678;14.080;2023-07-28T10:57:46;2.17;;;1.30;;
6840;SDS011;3458;53.678;14.080;2023-07-28T11:00:15;2.10;;;1.07;;
6840;SDS011;3458;53.678;14.080;2023-07-28T11:02:43;2.10;;;1.30;;
6840;SDS011;3458;53.678;14.080;2023-07-28T11:05:12;1.23;;;1.10;;
6840;SDS011;3458;53.678;14.080;2023-07-28T11:07:45;1.27;;;1.17;;
6840;SDS011;3458;53.678;14.080;2023-07-28T11:10:11;1.63;;;1.40;;
6840;SDS011;3458;53.678;14.080;2023-07-28T11:12:42;1.47;;;1.37;;
6840;SDS011;3458;53.678;14.080;2023-07-28T11:15:09;1.97;;;1.37;;
6840;SDS011;3458;53.678;14.080;2023-07-28T11:17:41;1.63;;;1.53;;
6840;SDS011;3458;53.678;14.080;2023-07-28T11:22:42;3.00;;;2.07;;
6840;SDS011;3458;53.678;14.080;2023-07-28T11:25:08;1.97;;;1.87;;
6840;SDS011;3458;53.678;14.080;2023-07-28T11:27:37;2.10;;;1.90;;
6840;SDS011;3458;53.678;14.080;2023-07-28T11:30:04;2.10;;;1.87;;
6840;SDS011;3458;53.678;14.080;2023-07-28T11:32:34;34.27;;;6.77;;
6840;SDS011;3458;53.678;14.080;2023-07-28T11:35:07;8.20;;;2.50;;
6840;SDS011;3458;53.678;14.080;2023-07-28T11:37:34;1.90;;;1.80;;
6840;SDS011;3458;53.678;14.080;2023-07-28T11:40:02;1.73;;;1.63;;
6840;SDS011;3458;53.678;14.080;2023-07-28T11:42:32;3.80;;;2.00;;
6840;SDS011;3458;53.678;14.080;2023-07-28T11:45:00;3.20;;;1.90;;
6840;SDS011;3458;53.678;14.080;2023-07-28T11:47:27;1.80;;;1.70;;
6840;SDS011;3458;53.678;14.080;2023-07-28T11:49:52;3.60;;;2.20;;
6840;SDS011;3458;53.678;14.080;2023-07-28T11:52:18;3.00;;;1.60;;
6840;SDS011;3458;53.678;14.080;2023-07-28T11:54:44;4.80;;;1.63;;
6840;SDS011;3458;53.678;14.080;2023-07-28T11:57:10;4.43;;;1.70;;
6840;SDS011;3458;53.678;14.080;2023-07-28T11:59:36;4.00;;;1.40;;
6840;SDS011;3458;53.678;14.080;2023-07-28T12:02:02;2.73;;;2.00;;
6840;SDS011;3458;53.678;14.080;2023-07-28T12:04:36;5.23;;;2.80;;
6840;SDS011;3458;53.678;14.080;2023-07-28T12:07:10;3.87;;;1.60;;
6840;SDS011;3458;53.678;14.080;2023-07-28T12:12:16;3.33;;;1.70;;
6840;SDS011;3458;53.678;14.080;2023-07-28T12:14:43;2.00;;;1.43;;
6840;SDS011;3458;53.678;14.080;2023-07-28T12:17:15;1.50;;;1.40;;
6840;SDS011;3458;53.678;14.080;2023-07-28T12:22:36;2.10;;;1.90;;
6840;SDS011;3458;53.678;14.080;2023-07-28T12:25:02;2.63;;;1.80;;
6840;SDS011;3458;53.678;14.080;2023-07-28T12:27:29;4.40;;;1.67;;
6840;SDS011;3458;53.678;14.080;2023-07-28T12:29:55;3.00;;;1.57;;
6840;SDS011;3458;53.678;14.080;2023-07-28T12:32:20;13.90;;;9.30;;
6840;SDS011;3458;53.678;14.080;2023-07-28T12:34:46;8.13;;;5.83;;
6840;SDS011;3458;53.678;14.080;2023-07-28T12:37:13;8.40;;;5.40;;
6840;SDS011;3458;53.678;14.080;2023-07-28T12:39:38;6.30;;;3.00;;
6840;SDS011;3458;53.678;14.080;2023-07-28T12:42:07;2.50;;;2.07;;
6840;SDS011;3458;53.678;14.080;2023-07-28T12:44:34;4.20;;;1.77;;
6840;SDS011;3458;53.678;14.080;2023-07-28T12:47:00;2.00;;;1.57;;
6840;SDS011;3458;53.678;14.080;2023-07-28T12:49:25;1.77;;;1.40;;
6840;SDS011;3458;53.678;14.080;2023-07-28T12:51:53;1.57;;;1.47;;
6840;SDS011;3458;53.678;14.080;2023-07-28T12:54:18;1.47;;;1.20;;
6840;SDS011;3458;53.678;14.080;2023-07-28T12:56:44;1.50;;;1.40;;
6840;SDS011;3458;53.678;14.080;2023-07-28T12:59:11;1.47;;;1.37;;
6840;SDS011;3458;53.678;14.080;2023-07-28T13:01:36;2.80;;;1.80;;
6840;SDS011;3458;53.678;14.080;2023-07-28T13:04:02;3.70;;;3.10;;
6840;SDS011;3458;53.678;14.080;2023-07-28T13:06:28;3.47;;;3.17;;
6840;SDS011;3458;53.678;14.080;2023-07-28T13:08:54;3.53;;;2.90;;
6840;SDS011;3458;53.678;14.080;2023-07-28T13:11:19;2.40;;;2.00;;
6840;SDS011;3458;53.678;14.080;2023-07-28T13:13:44;2.80;;;1.70;;
6840;SDS011;3458;53.678;14.080;2023-07-28T13:16:10;2.10;;;1.90;;
6840;SDS011;3458;53.678;14.080;2023-07-28T13:18:36;3.27;;;1.70;;
6840;SDS011;3458;53.678;14.080;2023-07-28T13:21:01;2.97;;;2.17;;
6840;SDS011;3458;53.678;14.080;2023-07-28T13:23:27;2.50;;;1.97;;
6840;SDS011;3458;53.678;14.080;2023-07-28T13:25:52;4.53;;;2.60;;
6840;SDS011;3458;53.678;14.080;2023-07-28T13:28:18;2.43;;;2.23;;
6840;SDS011;3458;53.678;14.080;2023-07-28T13:30:43;3.80;;;2.30;;
6840;SDS011;3458;53.678;14.080;2023-07-28T13:33:09;2.60;;;2.20;;
6840;SDS011;3458;53.678;14.080;2023-07-28T13:35:34;2.10;;;1.90;;
6840;SDS011;3458;53.678;14.080;2023-07-28T13:38:00;1.90;;;1.80;;
6840;SDS011;3458;53.678;14.080;2023-07-28T13:40:25;2.27;;;2.03;;
6840;SDS011;3458;53.678;14.080;2023-07-28T13:42:51;2.30;;;2.10;;
6840;SDS011;3458;53.678;14.080;2023-07-28T13:45:16;2.93;;;2.00;;
6840;SDS011;3458;53.678;14.080;2023-07-28T13:47:42;2.20;;;2.10;;
6840;SDS011;3458;53.678;14.080;2023-07-28T13:50:07;2.63;;;1.87;;
6840;SDS011;3458;53.678;14.080;2023-07-28T13:52:33;1.70;;;1.60;;
6840;SDS011;3458;53.678;14.080;2023-07-28T13:54:58;2.60;;;2.07;;
6840;SDS011;3458;53.678;14.080;2023-07-28T13:57:24;2.30;;;2.10;;
6840;SDS011;3458;53.678;14.080;2023-07-28T13:59:49;1.87;;;1.77;;
6840;SDS011;3458;53.678;14.080;2023-07-28T14:02:18;1.90;;;1.80;;
6840;SDS011;3458;53.678;14.080;2023-07-28T14:04:44;2.27;;;1.90;;
6840;SDS011;3458;53.678;14.080;2023-07-28T14:07:09;1.80;;;1.60;;
6840;SDS011;3458;53.678;14.080;2023-07-28T14:09:35;3.10;;;1.60;;
6840;SDS011;3458;53.678;14.080;2023-07-28T14:12:02;1.20;;;1.20;;
6840;SDS011;3458;53.678;14.080;2023-07-28T14:14:28;1.57;;;1.47;;
6840;SDS011;3458;53.678;14.080;2023-07-28T14:16:53;1.80;;;1.67;;
6840;SDS011;3458;53.678;14.080;2023-07-28T14:19:19;1.67;;;1.53;;
6840;SDS011;3458;53.678;14.080;2023-07-28T14:21:44;1.57;;;1.47;;
6840;SDS011;3458;53.678;14.080;2023-07-28T14:24:10;2.70;;;1.70;;
6840;SDS011;3458;53.678;14.080;2023-07-28T14:26:35;1.93;;;1.83;;
6840;SDS011;3458;53.678;14.080;2023-07-28T14:29:01;2.87;;;1.90;;
6840;SDS011;3458;53.678;14.080;2023-07-28T14:31:27;1.60;;;1.50;;
6840;SDS011;3458;53.678;14.080;2023-07-28T14:33:52;1.87;;;1.30;;
6840;SDS011;3458;53.678;14.080;2023-07-28T14:36:18;1.40;;;1.30;;
6840;SDS011;3458;53.678;14.080;2023-07-28T14:38:43;1.60;;;1.50;;
6840;SDS011;3458;53.678;14.080;2023-07-28T14:41:09;1.50;;;1.40;;
6840;SDS011;3458;53.678;14.080;2023-07-28T14:43:34;3.20;;;1.67;;
6840;SDS011;3458;53.678;14.080;2023-07-28T14:46:00;1.47;;;1.40;;
6840;SDS011;3458;53.678;14.080;2023-07-28T14:48:25;1.00;;;1.00;;
6840;SDS011;3458;53.678;14.080;2023-07-28T14:50:51;3.80;;;1.60;;
6840;SDS011;3458;53.678;14.080;2023-07-28T14:55:58;1.63;;;1.53;;
6840;SDS011;3458;53.678;14.080;2023-07-28T14:58:24;1.50;;;1.20;;
6840;SDS011;3458;53.678;14.080;2023-07-28T15:00:50;1.23;;;1.23;;
6840;SDS011;3458;53.678;14.080;2023-07-28T15:03:16;1.30;;;1.20;;
6840;SDS011;3458;53.678;14.080;2023-07-28T15:05:42;1.60;;;1.50;;